createdAt,value
2018-12-19T00:03:55.027Z,78.65
2018-12-19T00:06:24.292Z,78.59
2018-12-19T00:08:53.549Z,78.60
2018-12-19T00:11:22.822Z,78.56
2018-12-19T00:13:52.082Z,78.62
2018-12-19T00:16:21.359Z,78.61
2018-12-19T00:18:50.616Z,78.67
2018-12-19T00:21:19.907Z,78.70
2018-12-19T00:23:49.180Z,78.60
2018-12-19T00:26:18.452Z,78.62
2018-12-19T00:28:47.712Z,78.71
2018-12-19T00:31:16.990Z,78.63
2018-12-19T00:33:46.252Z,78.73
2018-12-19T00:36:15.609Z,78.74
2018-12-19T00:38:44.869Z,78.73
2018-12-19T00:41:14.114Z,78.77
2018-12-19T00:43:43.392Z,78.83
2018-12-19T00:46:12.648Z,78.78
2018-12-19T00:48:41.930Z,78.84
2018-12-19T00:51:11.198Z,78.97
2018-12-19T00:53:40.473Z,78.94
2018-12-19T00:56:09.732Z,78.95
2018-12-19T00:58:38.999Z,78.98
2018-12-19T01:01:08.264Z,79.02
2018-12-19T01:03:37.566Z,79.03
2018-12-19T01:06:06.889Z,79.09
2018-12-19T01:08:36.160Z,79.17
2018-12-19T01:11:05.420Z,79.11
2018-12-19T01:13:34.692Z,79.14
2018-12-19T01:16:03.956Z,79.22
2018-12-19T01:18:33.242Z,79.19
2018-12-19T01:21:02.507Z,79.27
2018-12-19T01:23:31.780Z,79.24
2018-12-19T01:26:01.036Z,79.31
2018-12-19T01:28:30.314Z,79.27
2018-12-19T01:30:59.584Z,79.35
2018-12-19T01:33:28.867Z,79.27
2018-12-19T01:35:58.118Z,79.21
2018-12-19T01:38:27.380Z,79.24
2018-12-19T01:40:56.637Z,79.12
2018-12-19T01:43:25.906Z,79.20
2018-12-19T01:45:55.174Z,79.20
2018-12-19T01:48:24.454Z,79.08
2018-12-19T01:50:53.719Z,79.07
2018-12-19T01:53:22.980Z,79.01
2018-12-19T01:55:52.326Z,79.07
2018-12-19T01:58:21.612Z,79.05
2018-12-19T02:00:50.873Z,79.02
2018-12-19T02:03:20.142Z,78.98
2018-12-19T02:05:49.405Z,78.76
2018-12-19T02:08:18.683Z,78.73
2018-12-19T02:10:47.946Z,78.65
2018-12-19T02:13:17.218Z,78.70
2018-12-19T02:15:46.478Z,78.59
2018-12-19T02:18:15.743Z,78.41
2018-12-19T02:20:45.010Z,78.37
2018-12-19T02:23:14.292Z,78.39
2018-12-19T02:25:43.544Z,78.15
2018-12-19T02:28:12.801Z,78.10
2018-12-19T02:30:42.072Z,78.09
2018-12-19T02:33:11.329Z,78.13
2018-12-19T02:35:40.613Z,78.02
2018-12-19T02:38:09.877Z,77.99
2018-12-19T02:40:39.140Z,77.87
2018-12-19T02:43:27.472Z,77.92
2018-12-19T02:45:56.755Z,77.73
2018-12-19T02:48:26.005Z,77.62
2018-12-19T02:50:55.267Z,77.71
2018-12-19T02:53:24.530Z,77.54
2018-12-19T02:55:53.788Z,77.40
2018-12-19T02:58:23.046Z,77.38
2018-12-19T03:00:52.308Z,77.49
2018-12-19T03:03:21.566Z,77.36
2018-12-19T03:05:50.838Z,77.23
2018-12-19T03:08:20.090Z,77.26
2018-12-19T03:10:49.360Z,77.22
2018-12-19T03:13:18.630Z,77.28
2018-12-19T03:15:47.924Z,77.21
2018-12-19T03:18:17.175Z,77.25
2018-12-19T03:20:46.437Z,77.16
2018-12-19T03:23:15.705Z,77.03
2018-12-19T03:25:45.043Z,77.19
2018-12-19T03:28:14.295Z,77.16
2018-12-19T03:30:43.578Z,77.23
2018-12-19T03:33:12.817Z,77.29
2018-12-19T03:35:42.092Z,77.29
2018-12-19T03:38:24.041Z,77.14
2018-12-19T03:40:53.321Z,77.21
2018-12-19T03:43:22.581Z,77.16
2018-12-19T03:45:51.853Z,77.23
2018-12-19T03:48:39.905Z,77.28
2018-12-19T03:51:09.175Z,77.35
2018-12-19T03:53:38.444Z,77.34
2018-12-19T03:56:07.714Z,77.24
2018-12-19T03:58:36.964Z,77.48
2018-12-19T04:01:06.241Z,77.49
2018-12-19T04:03:35.863Z,77.49
2018-12-19T04:06:05.128Z,77.54
2018-12-19T04:08:34.389Z,77.49
2018-12-19T04:11:03.741Z,77.43
2018-12-19T04:13:33.008Z,77.56
2018-12-19T04:16:02.264Z,77.62
2018-12-19T04:18:31.536Z,77.56
2018-12-19T04:21:00.796Z,77.48
2018-12-19T04:23:30.058Z,77.50
2018-12-19T04:25:59.326Z,77.62
2018-12-19T04:28:28.602Z,77.67
2018-12-19T04:30:57.852Z,77.43
2018-12-19T04:33:27.124Z,77.52
2018-12-19T04:35:56.462Z,77.58
2018-12-19T04:41:01.130Z,77.38
2018-12-19T04:43:30.403Z,77.42
2018-12-19T04:45:59.657Z,77.35
2018-12-19T04:48:29.021Z,77.25
2018-12-19T04:50:58.283Z,77.26
2018-12-19T04:53:27.556Z,77.17
2018-12-19T04:55:56.817Z,77.25
2018-12-19T04:58:26.090Z,77.29
2018-12-19T05:00:55.344Z,77.19
2018-12-19T05:03:24.611Z,77.10
2018-12-19T05:05:53.856Z,77.01
2018-12-19T05:08:23.131Z,77.04
2018-12-19T05:10:52.387Z,76.95
2018-12-19T05:13:21.664Z,76.86
2018-12-19T05:15:50.933Z,76.90
2018-12-19T05:18:20.211Z,76.81
2018-12-19T05:20:49.460Z,76.93
2018-12-19T05:23:18.738Z,76.84
2018-12-19T05:25:47.996Z,76.87
2018-12-19T05:28:17.264Z,76.72
2018-12-19T05:30:46.523Z,76.78
2018-12-19T05:33:15.791Z,76.69
2018-12-19T05:35:45.044Z,76.66
2018-12-19T05:38:14.323Z,76.74
2018-12-19T05:40:43.589Z,76.75
2018-12-19T05:43:12.868Z,76.60
2018-12-19T05:45:42.141Z,76.50
2018-12-19T05:48:11.406Z,76.54
2018-12-19T05:50:40.652Z,76.40
2018-12-19T05:53:09.909Z,76.44
2018-12-19T05:55:39.168Z,76.33
2018-12-19T05:58:08.441Z,76.28
2018-12-19T06:00:37.697Z,76.26
2018-12-19T06:03:06.975Z,76.27
2018-12-19T06:05:36.236Z,76.24
2018-12-19T06:08:05.499Z,76.21
2018-12-19T06:10:34.761Z,76.21
2018-12-19T06:13:04.028Z,76.13
2018-12-19T06:15:33.288Z,76.11
2018-12-19T06:18:02.558Z,76.15
2018-12-19T06:20:31.808Z,75.94
2018-12-19T06:23:01.071Z,75.94
2018-12-19T06:25:30.319Z,75.73
2018-12-19T06:27:59.690Z,75.63
2018-12-19T06:33:18.202Z,75.44
2018-12-19T06:35:47.466Z,75.49
2018-12-19T06:38:16.780Z,75.34
2018-12-19T06:40:46.045Z,75.25
2018-12-19T06:43:15.303Z,75.18
2018-12-19T06:45:44.561Z,75.23
2018-12-19T06:48:13.859Z,75.01
2018-12-19T06:50:43.129Z,75.19
2018-12-19T06:53:12.395Z,75.07
2018-12-19T06:55:41.653Z,75.10
2018-12-19T06:58:10.922Z,74.99
2018-12-19T07:00:40.174Z,74.90
2018-12-19T07:03:09.431Z,74.80
2018-12-19T07:05:38.696Z,74.46
2018-12-19T07:08:07.962Z,74.66
2018-12-19T07:10:39.262Z,74.73
2018-12-19T07:13:07.387Z,74.56
2018-12-19T07:15:36.656Z,74.37
2018-12-19T07:18:05.911Z,74.49
2018-12-19T07:20:35.176Z,74.26
2018-12-19T07:23:04.439Z,74.40
2018-12-19T07:25:33.720Z,74.21
2018-12-19T07:28:02.968Z,74.17
2018-12-19T07:30:32.232Z,74.16
2018-12-19T07:33:01.496Z,73.94
2018-12-19T07:35:30.768Z,73.61
2018-12-19T07:38:00.021Z,73.58
2018-12-19T07:40:29.283Z,73.68
2018-12-19T07:42:58.537Z,73.74
2018-12-19T07:45:27.802Z,73.45
2018-12-19T07:47:57.075Z,73.47
2018-12-19T07:50:26.346Z,73.38
2018-12-19T07:52:55.604Z,73.23
2018-12-19T07:58:00.820Z,73.07
2018-12-19T08:00:30.097Z,73.16
2018-12-19T08:02:59.346Z,73.21
2018-12-19T08:05:28.613Z,73.26
2018-12-19T08:07:57.862Z,72.98
2018-12-19T08:10:27.216Z,72.95
2018-12-19T08:12:56.477Z,73.05
2018-12-19T08:15:25.768Z,72.95
2018-12-19T08:17:55.021Z,72.91
2018-12-19T08:20:24.281Z,72.92
2018-12-19T08:22:53.561Z,72.85
2018-12-19T08:25:22.808Z,72.74
2018-12-19T08:27:52.070Z,72.70
2018-12-19T08:30:21.332Z,72.81
2018-12-19T08:32:50.600Z,72.92
2018-12-19T08:35:19.851Z,72.95
2018-12-19T08:37:49.110Z,72.86
2018-12-19T08:40:18.369Z,72.71
2018-12-19T08:42:47.644Z,72.77
2018-12-19T08:48:06.181Z,72.72
2018-12-19T08:50:35.435Z,72.73
2018-12-19T08:53:04.708Z,72.63
2018-12-19T08:55:33.977Z,72.61
2018-12-19T08:58:03.273Z,72.11
2018-12-19T09:00:32.532Z,72.22
2018-12-19T09:03:01.797Z,72.38
2018-12-19T09:05:31.054Z,72.78
2018-12-19T09:08:00.320Z,72.88
2018-12-19T09:10:29.580Z,73.13
2018-12-19T09:12:58.847Z,73.33
2018-12-19T09:15:46.832Z,73.42
2018-12-19T09:18:16.112Z,73.59
2018-12-19T09:23:13.312Z,73.93
2018-12-19T09:25:42.627Z,74.08
2018-12-19T09:28:11.908Z,74.47
2018-12-19T09:30:41.163Z,74.54
2018-12-19T09:33:10.442Z,74.81
2018-12-19T09:35:39.695Z,74.92
2018-12-19T09:38:08.959Z,75.02
2018-12-19T09:40:38.231Z,75.12
2018-12-19T09:43:07.492Z,75.06
2018-12-19T09:45:36.749Z,75.19
2018-12-19T09:50:41.926Z,75.42
2018-12-19T09:53:11.297Z,75.60
2018-12-19T09:55:40.563Z,75.66
2018-12-19T09:58:09.828Z,75.76
2018-12-19T10:00:39.082Z,75.66
2018-12-19T10:03:08.346Z,75.86
2018-12-19T10:05:37.599Z,75.93
2018-12-19T10:08:06.863Z,76.08
2018-12-19T10:10:36.111Z,76.19
2018-12-19T10:13:05.378Z,76.11
2018-12-19T10:15:34.631Z,76.25
2018-12-19T10:18:03.903Z,76.42
2018-12-19T10:20:33.155Z,76.22
2018-12-19T10:23:02.420Z,76.08
2018-12-19T10:25:31.666Z,76.23
2018-12-19T10:28:00.939Z,76.15
2018-12-19T10:33:19.536Z,76.10
2018-12-19T10:35:48.785Z,76.12
2018-12-19T10:38:18.056Z,76.06
2018-12-19T10:40:47.325Z,75.97
2018-12-19T10:43:16.584Z,76.00
2018-12-19T10:45:45.834Z,76.10
2018-12-19T10:48:15.106Z,75.96
2018-12-19T10:50:44.365Z,76.10
2018-12-19T10:53:13.645Z,76.24
2018-12-19T10:55:42.905Z,76.29
2018-12-19T10:58:12.133Z,76.52
2018-12-19T11:01:00.125Z,76.61
2018-12-19T11:03:29.392Z,76.97
2018-12-19T11:05:58.645Z,77.10
2018-12-19T11:08:46.959Z,77.25
2018-12-19T11:11:16.215Z,77.56
2018-12-19T11:13:45.471Z,77.77
2018-12-19T11:16:14.742Z,77.98
2018-12-19T11:18:44.009Z,78.22
2018-12-19T11:21:13.287Z,78.44
2018-12-19T11:24:24.522Z,79.42
2018-12-19T11:26:52.239Z,79.42
2018-12-19T11:29:19.637Z,79.19
2018-12-19T11:31:47.034Z,79.13
2018-12-19T11:34:14.441Z,79.36
2018-12-19T11:36:41.833Z,79.39
2018-12-19T11:39:09.238Z,79.55
2018-12-19T11:41:39.210Z,79.59
2018-12-19T11:44:06.031Z,80.40
2018-12-19T11:46:33.531Z,80.28
2018-12-19T11:49:00.987Z,80.06
2018-12-19T11:51:28.470Z,80.01
2018-12-19T11:53:55.962Z,80.25
2018-12-19T11:56:23.358Z,80.70
2018-12-19T11:58:50.753Z,81.01
2018-12-19T12:01:18.158Z,80.47
2018-12-19T12:03:45.559Z,80.34
2018-12-19T12:06:12.962Z,80.77
2018-12-19T12:08:40.349Z,80.80
2018-12-19T12:11:07.758Z,80.91
2018-12-19T12:13:35.150Z,80.95
2018-12-19T12:16:02.561Z,81.63
2018-12-19T12:18:29.950Z,81.27
2018-12-19T12:20:57.353Z,81.64
2018-12-19T12:23:24.761Z,81.40
2018-12-19T12:25:52.166Z,81.39
2018-12-19T12:28:19.558Z,82.12
2018-12-19T12:30:46.966Z,81.87
2018-12-19T12:33:14.365Z,81.53
2018-12-19T12:35:42.195Z,81.66
2018-12-19T12:38:09.588Z,81.79
2018-12-19T12:40:36.998Z,81.89
2018-12-19T12:43:04.401Z,81.73
2018-12-19T12:45:31.808Z,82.21
2018-12-19T12:47:59.203Z,82.21
2018-12-19T12:50:26.606Z,82.08
2018-12-19T12:52:54.011Z,82.48
2018-12-19T12:55:21.489Z,82.31
2018-12-19T12:57:48.899Z,82.86
2018-12-19T13:00:16.298Z,82.82
2018-12-19T13:02:43.711Z,82.08
2018-12-19T13:05:11.135Z,82.66
2018-12-19T13:07:38.539Z,82.61
2018-12-19T13:10:08.076Z,82.54
2018-12-19T13:12:35.474Z,82.28
2018-12-19T13:15:02.915Z,82.00
2018-12-19T13:17:30.314Z,82.71
2018-12-19T13:19:57.709Z,82.53
2018-12-19T13:22:25.114Z,82.26
2018-12-19T13:24:52.511Z,82.18
2018-12-19T13:27:19.934Z,82.65
2018-12-19T13:29:47.342Z,82.49
2018-12-19T13:32:14.970Z,82.27
2018-12-19T13:34:42.365Z,82.63
2018-12-19T13:37:09.765Z,82.29
2018-12-19T13:39:37.157Z,82.03
2018-12-19T13:42:05.737Z,82.32
2018-12-19T13:44:33.433Z,81.78
2018-12-19T13:47:00.830Z,82.48
2018-12-19T13:49:28.238Z,81.65
2018-12-19T13:51:55.632Z,82.28
2018-12-19T13:54:23.033Z,81.83
2018-12-19T13:56:50.436Z,82.58
2018-12-19T13:59:17.855Z,82.47
2018-12-19T14:01:45.241Z,81.99
2018-12-19T14:04:12.657Z,82.77
2018-12-19T14:06:40.051Z,81.87
2018-12-19T14:09:07.470Z,81.80
2018-12-19T14:11:34.866Z,82.58
2018-12-19T14:14:02.295Z,81.42
2018-12-19T14:16:29.700Z,82.25
2018-12-19T14:18:57.101Z,82.19
2018-12-19T14:21:24.498Z,81.55
2018-12-19T14:23:51.911Z,81.33
2018-12-19T14:26:19.311Z,82.05
2018-12-19T14:28:46.720Z,81.57
2018-12-19T14:31:14.119Z,81.42
2018-12-19T14:33:41.534Z,81.29
2018-12-19T14:36:08.925Z,81.81
2018-12-19T14:38:36.338Z,81.21
2018-12-19T14:41:03.733Z,81.97
2018-12-19T14:43:31.138Z,81.79
2018-12-19T14:45:59.564Z,81.23
2018-12-19T14:48:27.171Z,81.15
2018-12-19T14:50:54.895Z,81.46
2018-12-19T14:53:22.302Z,81.73
2018-12-19T14:55:49.707Z,81.62
2018-12-19T14:58:17.124Z,81.59
2018-12-19T15:00:44.526Z,82.02
2018-12-19T15:03:11.925Z,81.35
2018-12-19T15:05:39.338Z,81.49
2018-12-19T15:08:06.738Z,81.91
2018-12-19T15:10:34.372Z,82.28
2018-12-19T15:13:01.769Z,81.20
2018-12-19T15:15:29.176Z,81.76
2018-12-19T15:17:56.575Z,81.59
2018-12-19T15:20:23.989Z,81.91
2018-12-19T15:22:51.388Z,81.34
2018-12-19T15:25:18.798Z,81.16
2018-12-19T15:27:46.181Z,81.75
2018-12-19T15:30:13.590Z,81.37
2018-12-19T15:32:41.002Z,82.06
2018-12-19T15:35:08.413Z,81.70
2018-12-19T15:37:35.802Z,81.79
2018-12-19T15:40:03.430Z,81.89
2018-12-19T15:42:32.685Z,81.50
2018-12-19T15:45:00.232Z,80.81
2018-12-19T15:47:27.630Z,81.62
2018-12-19T15:49:55.029Z,81.54
2018-12-19T15:52:22.421Z,81.67
2018-12-19T15:54:49.829Z,81.56
2018-12-19T15:57:17.233Z,80.80
2018-12-19T15:59:44.721Z,80.69
2018-12-19T16:02:12.111Z,81.50
2018-12-19T16:04:39.742Z,81.22
2018-12-19T16:07:07.142Z,81.13
2018-12-19T16:09:34.534Z,81.47
2018-12-19T16:12:01.942Z,80.65
2018-12-19T16:14:29.344Z,81.34
2018-12-19T16:16:56.749Z,81.50
2018-12-19T16:19:24.144Z,81.34
2018-12-19T16:21:51.546Z,80.95
2018-12-19T16:24:18.937Z,80.58
2018-12-19T16:26:46.346Z,81.07
2018-12-19T16:29:13.745Z,80.21
2018-12-19T16:31:41.150Z,80.00
2018-12-19T16:34:08.555Z,80.33
2018-12-19T16:36:35.962Z,80.96
2018-12-19T16:39:05.299Z,80.21
2018-12-19T16:41:32.717Z,79.85
2018-12-19T16:44:00.116Z,79.92
2018-12-19T16:46:27.521Z,79.50
2018-12-19T16:48:54.928Z,80.24
2018-12-19T16:51:22.330Z,79.35
2018-12-19T16:53:49.789Z,79.59
2018-12-19T16:56:17.193Z,79.88
2018-12-19T16:58:44.615Z,80.22
2018-12-19T17:01:12.031Z,79.56
2018-12-19T17:03:39.438Z,79.95
2018-12-19T17:06:06.850Z,79.75
2018-12-19T17:08:34.246Z,79.51
2018-12-19T17:11:01.654Z,79.43
2018-12-19T17:13:29.059Z,79.43
2018-12-19T17:15:56.462Z,78.94
2018-12-19T17:18:23.857Z,79.49
2018-12-19T17:20:51.266Z,78.64
2018-12-19T17:23:18.666Z,78.55
2018-12-19T17:25:47.673Z,78.63
2018-12-19T17:28:15.237Z,78.80
2018-12-19T17:30:42.631Z,79.75
2018-12-19T17:33:10.039Z,78.86
2018-12-19T17:35:37.442Z,78.98
2018-12-19T17:38:04.881Z,78.65
2018-12-19T17:40:32.270Z,79.04
2018-12-19T17:42:59.723Z,79.49
2018-12-19T17:45:27.182Z,78.62
2018-12-19T17:47:54.603Z,78.59
2018-12-19T17:50:21.993Z,78.75
2018-12-19T17:52:49.399Z,79.35
2018-12-19T17:55:16.798Z,78.71
2018-12-19T17:57:44.209Z,78.71
2018-12-19T18:00:11.940Z,78.06
2018-12-19T18:02:39.342Z,78.73
2018-12-19T18:05:06.742Z,78.94
2018-12-19T18:07:34.158Z,77.90
2018-12-19T18:10:01.558Z,78.33
2018-12-19T18:12:28.957Z,79.02
2018-12-19T18:17:30.146Z,78.36
2018-12-19T18:19:57.546Z,78.00
2018-12-19T18:22:24.958Z,78.85
2018-12-19T18:24:52.359Z,78.74
2018-12-19T18:27:19.767Z,78.69
2018-12-19T18:29:47.158Z,78.13
2018-12-19T18:32:14.561Z,78.70
2018-12-19T18:34:41.970Z,77.96
2018-12-19T18:37:09.370Z,77.85
2018-12-19T18:39:36.778Z,79.16
2018-12-19T18:42:04.178Z,78.59
2018-12-19T18:44:31.578Z,77.79
2018-12-19T18:46:58.978Z,78.66
2018-12-19T18:49:26.386Z,78.89
2018-12-19T18:51:53.777Z,78.45
2018-12-19T18:54:21.185Z,78.39
2018-12-19T18:56:48.584Z,78.92
2018-12-19T18:59:16.017Z,78.58
2018-12-19T19:01:43.535Z,78.68
2018-12-19T19:04:10.983Z,78.33
2018-12-19T19:06:38.471Z,78.11
2018-12-19T19:09:05.964Z,77.90
2018-12-19T19:11:33.342Z,78.03
2018-12-19T19:14:00.774Z,78.50
2018-12-19T19:16:28.173Z,77.79
2018-12-19T19:18:55.581Z,77.72
2018-12-19T19:21:22.977Z,78.35
2018-12-19T19:23:50.387Z,78.44
2018-12-19T19:26:17.785Z,78.32
2018-12-19T19:28:45.185Z,77.79
2018-12-19T19:31:12.586Z,78.73
2018-12-19T19:33:39.982Z,77.52
2018-12-19T19:36:07.382Z,77.61
2018-12-19T19:38:34.781Z,77.85
2018-12-19T19:41:02.186Z,78.24
2018-12-19T19:43:29.585Z,77.79
2018-12-19T19:45:56.989Z,78.11
2018-12-19T19:48:24.391Z,78.33
2018-12-19T19:50:51.801Z,78.08
2018-12-19T19:53:19.285Z,77.15
2018-12-19T19:55:46.690Z,77.31
2018-12-19T19:58:14.096Z,77.29
2018-12-19T20:00:41.510Z,77.24
2018-12-19T20:03:08.906Z,77.72
2018-12-19T20:05:36.317Z,77.53
2018-12-19T20:08:03.718Z,77.61
2018-12-19T20:10:31.126Z,77.97
2018-12-19T20:12:58.519Z,78.11
2018-12-19T20:15:25.930Z,78.08
2018-12-19T20:17:53.331Z,77.82
2018-12-19T20:20:20.749Z,77.31
2018-12-19T20:22:48.146Z,77.19
2018-12-19T20:25:15.557Z,77.50
2018-12-19T20:27:42.950Z,77.40
2018-12-19T20:30:10.569Z,77.28
2018-12-19T20:32:37.997Z,76.87
2018-12-19T20:35:05.422Z,77.85
2018-12-19T20:37:32.832Z,77.90
2018-12-19T20:40:00.230Z,78.00
2018-12-19T20:42:27.625Z,77.37
2018-12-19T20:44:55.035Z,77.86
2018-12-19T20:47:22.433Z,77.23
2018-12-19T20:49:49.837Z,78.16
2018-12-19T20:52:17.238Z,77.85
2018-12-19T20:54:44.646Z,76.95
2018-12-19T20:57:12.067Z,76.66
2018-12-19T20:59:39.529Z,77.18
2018-12-19T21:02:07.018Z,76.82
2018-12-19T21:04:34.414Z,77.00
2018-12-19T21:07:01.813Z,77.47
2018-12-19T21:09:29.210Z,77.46
2018-12-19T21:11:56.616Z,76.37
2018-12-19T21:14:24.015Z,77.19
2018-12-19T21:16:57.154Z,76.20
2018-12-19T21:19:24.546Z,76.59
2018-12-19T21:21:51.962Z,76.40
2018-12-19T21:24:19.366Z,76.91
2018-12-19T21:26:46.769Z,76.20
2018-12-19T21:29:14.165Z,77.03
2018-12-19T21:31:41.566Z,76.76
2018-12-19T21:34:08.958Z,76.93
2018-12-19T21:36:36.373Z,77.36
2018-12-19T21:39:05.747Z,77.28
2018-12-19T21:41:33.198Z,77.05
2018-12-19T21:44:00.614Z,76.25
2018-12-19T21:46:28.148Z,76.82
2018-12-19T21:48:55.634Z,76.29
2018-12-19T21:51:23.101Z,76.99
2018-12-19T21:53:50.592Z,76.66
2018-12-19T21:56:18.090Z,76.08
2018-12-19T21:58:45.626Z,77.02
2018-12-19T22:01:13.082Z,76.04
2018-12-19T22:03:40.516Z,76.35
2018-12-19T22:06:07.987Z,76.72
2018-12-19T22:08:35.393Z,77.22
2018-12-19T22:11:02.945Z,77.14
2018-12-19T22:13:30.388Z,76.91
2018-12-19T22:15:57.895Z,76.35
2018-12-19T22:18:31.131Z,77.02
2018-12-19T22:20:58.614Z,76.54
2018-12-19T22:23:26.102Z,76.10
2018-12-19T22:25:53.509Z,76.28
2018-12-19T22:28:20.919Z,76.61
2018-12-19T22:30:48.318Z,75.85
2018-12-19T22:33:15.739Z,76.65
2018-12-19T22:35:43.203Z,76.76
2018-12-19T22:38:10.630Z,76.39
2018-12-19T22:40:38.039Z,76.68
2018-12-19T22:43:05.567Z,76.16
2018-12-19T22:45:33.029Z,76.01
2018-12-19T22:48:00.438Z,75.87
2018-12-19T22:50:27.838Z,76.03
2018-12-19T22:52:55.350Z,75.52
2018-12-19T22:55:22.746Z,76.20
2018-12-19T22:57:50.159Z,75.61
2018-12-19T23:00:17.695Z,75.17
2018-12-19T23:02:50.843Z,75.73
2018-12-19T23:05:20.203Z,75.53
2018-12-19T23:07:47.700Z,75.31
2018-12-19T23:10:15.254Z,76.59
2018-12-19T23:12:42.695Z,75.46
2018-12-19T23:15:10.171Z,75.94
2018-12-19T23:17:39.570Z,75.64
2018-12-19T23:20:09.112Z,76.04
2018-12-19T23:22:36.645Z,75.50
2018-12-19T23:25:04.979Z,75.97
2018-12-19T23:27:32.378Z,75.59
2018-12-19T23:29:59.773Z,75.56
2018-12-19T23:32:27.984Z,75.24
2018-12-19T23:34:56.086Z,75.78
2018-12-19T23:37:23.562Z,75.61
2018-12-19T23:39:50.983Z,75.29
2018-12-19T23:42:18.495Z,76.42
2018-12-19T23:44:45.928Z,75.88
2018-12-19T23:47:13.385Z,75.63
2018-12-19T23:49:40.887Z,76.00
2018-12-19T23:52:08.378Z,75.98
2018-12-19T23:54:35.936Z,75.87
2018-12-19T23:57:03.448Z,76.04
2018-12-19T23:59:30.884Z,75.39
